createdAt,value
2023-02-01T00:00:16.946Z,4.9
2023-02-01T00:02:18.303Z,4.8
2023-02-01T00:04:22.895Z,4.9
2023-02-01T00:06:24.221Z,4.9
2023-02-01T00:08:25.507Z,5
2023-02-01T00:10:26.820Z,4.9
2023-02-01T00:12:28.165Z,4.9
2023-02-01T00:14:29.504Z,4.9
2023-02-01T00:16:30.908Z,5
2023-02-01T00:18:35.501Z,5.1
2023-02-01T00:20:36.820Z,5.1
2023-02-01T00:22:38.136Z,5.2
2023-02-01T00:30:43.486Z,5.2
2023-02-01T00:32:48.034Z,5.2
2023-02-01T00:34:49.425Z,5.3
2023-02-01T00:38:51.978Z,5.3
2023-02-01T00:40:53.276Z,5.3
2023-02-01T00:42:54.594Z,5.2
2023-02-01T00:44:55.918Z,5.2
2023-02-01T00:51:03.250Z,5.2
2023-02-01T00:53:26.418Z,5.1
2023-02-01T00:55:27.729Z,5.1
2023-02-01T00:57:29.429Z,5.2
2023-02-01T00:59:34.077Z,5.3
2023-02-01T01:05:38.131Z,5.2
2023-02-01T01:09:40.794Z,5.2
2023-02-01T01:13:46.747Z,5.1
2023-02-01T01:15:48.088Z,5.1
2023-02-01T01:17:49.362Z,5.1
2023-02-01T01:19:50.737Z,5.1
2023-02-01T01:21:52.046Z,5.2
2023-02-01T01:23:53.355Z,5.1
2023-02-01T01:25:54.704Z,5
2023-02-01T01:27:59.294Z,5.1
2023-02-01T01:30:00.684Z,5.1
2023-02-01T01:34:03.316Z,5.1
2023-02-01T01:36:04.702Z,5.1
2023-02-01T01:38:06.029Z,5.1
2023-02-01T01:40:07.379Z,4.9
2023-02-01T01:44:13.279Z,5
2023-02-01T01:47:16.916Z,4.9
2023-02-01T01:49:18.252Z,4.8
2023-02-01T01:51:19.538Z,4.8
2023-02-01T01:53:20.844Z,4.8
2023-02-01T01:55:25.494Z,4.7
2023-02-01T01:57:26.786Z,4.7
2023-02-01T01:59:28.123Z,4.8
2023-02-01T02:01:29.422Z,4.8
2023-02-01T02:03:30.717Z,4.9
2023-02-01T02:05:32.047Z,4.9
2023-02-01T02:07:33.358Z,4.9
2023-02-01T02:09:38.607Z,5
2023-02-01T02:11:39.297Z,5
2023-02-01T02:13:40.641Z,5
2023-02-01T02:15:41.944Z,5.1
2023-02-01T02:17:43.269Z,5.3
2023-02-01T02:19:44.565Z,5.4
2023-02-01T02:23:50.513Z,5.6
2023-02-01T02:25:51.857Z,5.5
2023-02-01T02:27:53.163Z,5.5
2023-02-01T02:29:54.492Z,5.6
2023-02-01T02:31:55.974Z,5.5
2023-02-01T02:33:57.152Z,5.7
2023-02-01T02:35:58.447Z,5.8
2023-02-01T02:38:03.089Z,5.7
2023-02-01T02:40:04.418Z,5.8
2023-02-01T02:42:05.715Z,5.9
2023-02-01T02:45:09.359Z,6
2023-02-01T02:47:10.709Z,6
2023-02-01T02:49:12.012Z,6.1
2023-02-01T02:51:16.750Z,6.2
2023-02-01T02:53:18.017Z,6.2
2023-02-01T02:55:19.328Z,6.2
2023-02-01T02:57:20.678Z,6
2023-02-01T02:59:21.980Z,5.9
2023-02-01T03:01:24.941Z,6.1
2023-02-01T03:03:26.166Z,6.2
2023-02-01T03:05:30.848Z,6.1
2023-02-01T03:07:32.156Z,6.1
2023-02-01T03:09:33.506Z,6.2
2023-02-01T03:11:34.813Z,6.3
2023-02-01T03:13:36.133Z,6.3
2023-02-01T03:15:37.518Z,6.3
2023-02-01T03:17:38.805Z,6.3
2023-02-01T03:19:43.486Z,6.3
2023-02-01T03:21:44.782Z,6.2
2023-02-01T03:23:46.115Z,6.3
2023-02-01T03:25:47.484Z,6.2
2023-02-01T03:27:48.795Z,6.2
2023-02-01T03:29:50.125Z,6.3
2023-02-01T03:31:51.544Z,6.2
2023-02-01T03:33:56.175Z,6.4
2023-02-01T03:35:57.515Z,6.4
2023-02-01T03:37:58.811Z,6.3
2023-02-01T03:39:01.181Z,6.3
2023-02-01T03:41:02.533Z,6.4
2023-02-01T03:43:03.884Z,6.3
2023-02-01T03:45:05.172Z,6.5
2023-02-01T03:47:09.851Z,6.5
2023-02-01T03:49:11.153Z,6.4
2023-02-01T03:51:12.535Z,6.5
2023-02-01T03:53:13.855Z,6.6
2023-02-01T03:55:15.173Z,6.5
2023-02-01T03:57:16.531Z,6.3
2023-02-01T04:01:22.524Z,6.4
2023-02-01T04:03:23.868Z,6.4
2023-02-01T04:07:26.634Z,6.4
2023-02-01T04:13:30.657Z,6.3
2023-02-01T04:19:38.079Z,6.4
2023-02-01T04:21:39.407Z,6.4
2023-02-01T04:23:40.726Z,6.3
2023-02-01T04:25:42.141Z,6.3
2023-02-01T04:27:43.549Z,6.4
2023-02-01T04:29:48.188Z,6.3
2023-02-01T04:31:49.622Z,6.3
2023-02-01T04:33:50.850Z,6.4
2023-02-01T04:36:13.820Z,6.5
2023-02-01T04:38:15.175Z,6.5
2023-02-01T04:40:16.516Z,6.5
2023-02-01T04:42:21.155Z,6.6
2023-02-01T04:44:22.475Z,6.6
2023-02-01T04:48:25.286Z,6.6
2023-02-01T04:50:26.488Z,6.6
2023-02-01T04:52:27.863Z,6.6
2023-02-01T04:56:33.922Z,6.6
2023-02-01T04:58:35.263Z,6.6
2023-02-01T05:00:36.651Z,6.5
2023-02-01T05:02:37.976Z,6.7
2023-02-01T05:04:39.429Z,6.7
2023-02-01T05:06:40.674Z,6.6
2023-02-01T05:08:41.991Z,6.6
2023-02-01T05:10:46.651Z,6.6
2023-02-01T05:12:47.975Z,6.5
2023-02-01T05:14:49.327Z,6.6
2023-02-01T05:16:50.655Z,6.6
2023-02-01T05:18:52.007Z,6.5
2023-02-01T05:20:53.353Z,6.5
2023-02-01T05:22:54.731Z,6.5
2023-02-01T05:24:59.389Z,6.5
2023-02-01T05:27:00.681Z,6.5
2023-02-01T05:29:02.086Z,6.5
2023-02-01T05:30:04.415Z,6.5
2023-02-01T05:36:08.423Z,6.6
2023-02-01T05:38:13.046Z,6.5
2023-02-01T05:40:14.404Z,6.6
2023-02-01T05:42:15.729Z,6.5
2023-02-01T05:44:17.070Z,6.5
2023-02-01T05:46:18.481Z,6.5
2023-02-01T05:48:19.752Z,6.5
2023-02-01T05:50:21.481Z,6.5
2023-02-01T05:52:25.750Z,6.5
2023-02-01T05:54:27.102Z,6.6
2023-02-01T05:56:28.428Z,6.6
2023-02-01T06:00:31.121Z,6.5
2023-02-01T06:02:32.533Z,6.5
2023-02-01T06:04:33.823Z,6.5
2023-02-01T06:06:38.466Z,6.5
2023-02-01T06:08:39.840Z,6.5
2023-02-01T06:10:41.226Z,6.6
2023-02-01T06:12:42.631Z,6.4
2023-02-01T06:14:43.923Z,6.4
2023-02-01T06:18:46.602Z,6.5
2023-02-01T06:20:51.273Z,6.4
2023-02-01T06:22:52.603Z,6.4
2023-02-01T06:24:53.967Z,6.4
2023-02-01T06:27:57.634Z,6.4
2023-02-01T06:29:58.969Z,6.4
2023-02-01T06:32:00.368Z,6.4
2023-02-01T06:34:05.002Z,6.3
2023-02-01T06:36:06.304Z,6.3
2023-02-01T06:38:07.656Z,6.3
2023-02-01T06:40:09.008Z,6.4
2023-02-01T06:42:10.318Z,6.4
2023-02-01T06:44:11.700Z,6.3
2023-02-01T06:46:13.177Z,6.3
2023-02-01T06:54:21.692Z,6.1
2023-02-01T06:56:23.040Z,6.1
2023-02-01T06:58:24.371Z,6.2
2023-02-01T07:00:26.093Z,6.2
2023-02-01T07:04:31.696Z,6.1
2023-02-01T07:08:34.415Z,6.2
2023-02-01T07:10:35.720Z,6.2
2023-02-01T07:16:43.053Z,6.1
2023-02-01T07:18:44.387Z,6.1
2023-02-01T07:20:45.711Z,6.1
2023-02-01T07:23:49.358Z,6.1
2023-02-01T07:27:52.039Z,6
2023-02-01T07:38:02.024Z,6.1
2023-02-01T07:42:04.676Z,6.1
2023-02-01T07:48:11.970Z,6.2
2023-02-01T07:50:13.333Z,6.2
2023-02-01T07:52:14.629Z,6.2
2023-02-01T07:54:16.008Z,6.1
2023-02-01T07:56:17.334Z,6.2
2023-02-01T07:58:21.940Z,6.2
2023-02-01T08:00:23.620Z,6.3
2023-02-01T08:02:24.706Z,6.3
2023-02-01T08:04:25.964Z,6.3
2023-02-01T08:06:27.284Z,6.3
2023-02-01T08:12:34.602Z,6.4
2023-02-01T08:14:35.956Z,6.4
2023-02-01T08:21:07.592Z,6.5
2023-02-01T08:23:08.963Z,6.6
2023-02-01T08:33:19.011Z,7.1
2023-02-01T08:35:21.215Z,7
2023-02-01T08:37:21.699Z,7
2023-02-01T08:39:26.377Z,6.9
2023-02-01T08:41:27.691Z,6.9
2023-02-01T08:45:30.375Z,6.9
2023-02-01T08:49:33.118Z,6.9
2023-02-01T08:51:36.041Z,6.9
2023-02-01T08:53:40.629Z,6.9
2023-02-01T08:55:41.951Z,6.9
2023-02-01T08:59:44.656Z,6.9
2023-02-01T09:01:46.027Z,6.9
2023-02-01T09:03:47.441Z,6.9
2023-02-01T09:05:50.126Z,7
2023-02-01T09:11:56.065Z,7.1
2023-02-01T09:12:58.399Z,7.3
2023-02-01T09:14:59.828Z,7.5
2023-02-01T09:17:01.109Z,7.7
2023-02-01T09:19:24.530Z,7.8
2023-02-01T09:23:08.475Z,7.5
2023-02-01T09:25:09.850Z,7.6
2023-02-01T09:29:12.465Z,7.9
2023-02-01T09:35:19.856Z,7.5
2023-02-01T09:37:21.197Z,7.4
2023-02-01T09:39:22.540Z,7.4
2023-02-01T09:41:23.975Z,7.4
2023-02-01T09:43:25.247Z,7.4
2023-02-01T09:45:26.594Z,7.4
2023-02-01T09:49:32.657Z,7.2
2023-02-01T09:51:33.990Z,7.2
2023-02-01T09:53:35.352Z,7.2
2023-02-01T09:59:39.420Z,7.1
2023-02-01T10:01:40.834Z,7.2
2023-02-01T10:03:45.485Z,7.1
2023-02-01T10:05:46.777Z,7.2
2023-02-01T10:07:48.143Z,7.2
2023-02-01T10:08:50.496Z,7.2
2023-02-01T10:10:51.828Z,7.2
2023-02-01T10:12:53.197Z,7.2
2023-02-01T10:14:54.540Z,7.3
2023-02-01T10:16:59.288Z,7.2
2023-02-01T10:19:00.544Z,7.2
2023-02-01T10:21:01.887Z,7.1
2023-02-01T10:23:26.877Z,6.8
2023-02-01T10:25:04.596Z,6.3
2023-02-01T10:31:12.005Z,5.5
2023-02-01T10:33:13.312Z,5.6
2023-02-01T10:35:14.658Z,5.6
2023-02-01T10:37:16.024Z,5.5
2023-02-01T10:41:18.748Z,5.5
2023-02-01T10:43:20.084Z,5.5
2023-02-01T10:45:24.718Z,5.4
2023-02-01T10:47:26.084Z,5.4
2023-02-01T10:49:27.451Z,5.5
2023-02-01T10:51:28.744Z,5.4
2023-02-01T10:53:30.121Z,5.4
2023-02-01T10:55:31.461Z,5.3
2023-02-01T10:57:32.809Z,5.3
2023-02-01T10:59:37.462Z,5.4
2023-02-01T11:01:38.850Z,5.4
2023-02-01T11:03:40.163Z,5.4
2023-02-01T11:04:42.461Z,5.5
2023-02-01T11:08:45.158Z,5.4
2023-02-01T11:10:46.465Z,5.5
2023-02-01T11:12:51.136Z,5.6
2023-02-01T11:22:57.837Z,5.6
2023-02-01T11:24:59.173Z,5.6
2023-02-01T11:27:06.691Z,5.6
2023-02-01T11:29:05.236Z,5.6
2023-02-01T11:31:06.557Z,5.4
2023-02-01T11:33:07.799Z,5.4
2023-02-01T11:35:09.162Z,5.4
2023-02-01T11:37:10.524Z,5.5
2023-02-01T11:39:11.933Z,5.5
2023-02-01T11:41:16.504Z,5.7
2023-02-01T11:43:17.816Z,5.7
2023-02-01T11:45:19.174Z,5.7
2023-02-01T11:47:20.531Z,5.8
2023-02-01T11:49:21.909Z,5.8
2023-02-01T11:51:23.199Z,6.1
2023-02-01T11:53:24.548Z,6
2023-02-01T11:55:29.202Z,5.9
2023-02-01T11:57:30.539Z,6.1
2023-02-01T11:59:31.880Z,6.3
2023-02-01T12:01:55.034Z,6.7
2023-02-01T12:03:56.335Z,6.8
2023-02-01T12:05:57.661Z,7.1
2023-02-01T12:08:02.294Z,7.2
2023-02-01T12:10:03.795Z,7.2
2023-02-01T12:16:07.749Z,7.2
2023-02-01T12:18:09.018Z,6.8
2023-02-01T12:20:10.369Z,7
2023-02-01T12:22:15.063Z,7.1
2023-02-01T12:26:18.630Z,7.2
2023-02-01T12:28:19.091Z,6.8
2023-02-01T12:30:20.443Z,7.1
2023-02-01T12:32:21.770Z,7.3
2023-02-01T12:34:23.131Z,7.3
2023-02-01T12:38:29.146Z,7.4
2023-02-01T12:42:31.842Z,7.5
2023-02-01T12:44:33.239Z,7.6
2023-02-01T12:52:41.910Z,7.7
2023-02-01T12:54:43.269Z,7.6
2023-02-01T12:55:45.596Z,7.5
2023-02-01T12:57:46.920Z,7.6
2023-02-01T12:59:48.309Z,7.6
2023-02-01T13:01:49.644Z,7.4
2023-02-01T13:03:54.295Z,7.4
2023-02-01T13:05:55.655Z,7.4
2023-02-01T13:07:57.017Z,7.4
2023-02-01T13:09:58.326Z,7.3
2023-02-01T13:11:59.700Z,7.1
2023-02-01T13:14:01.025Z,6.9
2023-02-01T13:16:02.410Z,6.9
2023-02-01T13:18:07.166Z,7
2023-02-01T13:20:08.431Z,7.1
2023-02-01T13:22:09.847Z,7.2
2023-02-01T13:24:11.141Z,7.1
2023-02-01T13:26:12.465Z,7
2023-02-01T13:28:13.823Z,7.3
2023-02-01T13:30:15.178Z,7.3
2023-02-01T13:32:19.845Z,7.4
2023-02-01T13:34:21.164Z,7.5
2023-02-01T13:36:22.505Z,7.5
2023-02-01T13:38:23.887Z,7.5
2023-02-01T13:40:25.235Z,7.2
2023-02-01T13:42:26.707Z,6.7
2023-02-01T13:44:27.929Z,6.7
2023-02-01T13:46:32.578Z,7.2
2023-02-01T13:48:33.908Z,7.3
2023-02-01T13:50:35.299Z,7.4
2023-02-01T13:53:38.965Z,7.4
2023-02-01T13:55:40.335Z,7.5
2023-02-01T13:57:41.669Z,7.6
2023-02-01T13:59:46.327Z,7.5
2023-02-01T14:03:49.019Z,7.7
2023-02-01T14:05:50.378Z,7.7
2023-02-01T14:07:51.752Z,7.7
2023-02-01T14:09:53.150Z,7.7
2023-02-01T14:11:54.552Z,7.7
2023-02-01T14:13:59.131Z,7.7
2023-02-01T14:16:00.535Z,7.7
2023-02-01T14:18:01.831Z,7.7
2023-02-01T14:20:03.176Z,7.7
2023-02-01T14:22:04.535Z,7.7
2023-02-01T14:24:05.887Z,7.7
2023-02-01T14:26:07.230Z,7.6
2023-02-01T14:28:11.924Z,7.6
2023-02-01T14:30:13.254Z,7.5
2023-02-01T14:32:14.659Z,7.1
2023-02-01T14:36:17.341Z,6.8
2023-02-01T14:38:18.708Z,7
2023-02-01T14:40:20.083Z,7
2023-02-01T14:42:26.286Z,7.2
2023-02-01T14:46:29.067Z,7.4
2023-02-01T14:47:31.381Z,7.4
2023-02-01T14:51:34.055Z,7.4
2023-02-01T14:53:35.421Z,7.5
2023-02-01T14:55:40.098Z,7.5
2023-02-01T14:57:41.388Z,7.5
2023-02-01T15:01:44.161Z,7.5
2023-02-01T15:03:45.455Z,7.5
2023-02-01T15:05:46.835Z,7.5
2023-02-01T15:07:48.179Z,7.7
2023-02-01T15:11:54.176Z,7.7
2023-02-01T15:13:55.638Z,7.6
2023-02-01T15:15:56.979Z,7.6
2023-02-01T15:17:58.278Z,6.9
2023-02-01T15:19:59.601Z,6.5
2023-02-01T15:22:00.960Z,6.4
2023-02-01T15:24:05.667Z,6.3
2023-02-01T15:26:06.949Z,6.2
2023-02-01T15:28:08.281Z,6.2
2023-02-01T15:30:09.640Z,6
2023-02-01T15:32:11.120Z,5.8
2023-02-01T15:34:12.355Z,5.7
2023-02-01T15:36:13.714Z,5.6
2023-02-01T15:38:18.359Z,5
2023-02-01T15:40:19.740Z,4.9
2023-02-01T15:42:21.072Z,4.7
2023-02-01T15:44:44.228Z,4.6
2023-02-01T15:46:45.633Z,4.6
2023-02-01T15:48:46.915Z,4.6
2023-02-01T15:50:51.572Z,4.6
2023-02-01T15:52:52.914Z,4.7
2023-02-01T15:54:54.360Z,4.6
2023-02-01T16:07:05.805Z,4.7
2023-02-01T16:09:06.789Z,4.7
2023-02-01T16:11:08.114Z,4.7
2023-02-01T16:13:09.460Z,4.7
2023-02-01T16:15:10.774Z,4.7
2023-02-01T16:17:12.085Z,4.6
2023-02-01T16:19:16.707Z,4.6
2023-02-01T16:21:18.022Z,4.6
2023-02-01T16:23:19.316Z,4.7
2023-02-01T16:25:20.659Z,4.8
2023-02-01T16:27:21.979Z,5
2023-02-01T16:31:24.722Z,5.2
2023-02-01T16:33:29.277Z,5.3
2023-02-01T16:35:30.678Z,5.3
2023-02-01T16:37:31.992Z,5.3
2023-02-01T16:38:34.308Z,5.4
2023-02-01T16:40:35.622Z,5.4
2023-02-01T16:42:36.945Z,5.4
2023-02-01T16:44:38.267Z,5.4
2023-02-01T16:46:42.924Z,5.5
2023-02-01T16:48:44.223Z,5.6
2023-02-01T16:50:45.556Z,5.6
2023-02-01T16:56:49.534Z,5.6
2023-02-01T16:58:50.856Z,5.6
2023-02-01T17:00:55.559Z,5.5
2023-02-01T17:02:56.807Z,5.4
2023-02-01T17:04:58.243Z,5.4
2023-02-01T17:06:59.510Z,5.2
2023-02-01T17:09:00.819Z,5.1
2023-02-01T17:11:02.133Z,4.9
2023-02-01T17:13:03.461Z,4.9
2023-02-01T17:17:09.527Z,4.9
2023-02-01T17:19:10.744Z,4.8
2023-02-01T17:21:12.139Z,4.7
2023-02-01T17:23:13.474Z,4.6
2023-02-01T17:29:20.744Z,4.6
2023-02-01T17:33:23.433Z,4.5
2023-02-01T17:34:25.753Z,4.6
2023-02-01T17:38:28.400Z,4.7
2023-02-01T17:40:29.721Z,4.7
2023-02-01T17:42:34.452Z,5
2023-02-01T17:48:38.392Z,5
2023-02-01T17:50:39.764Z,5.1
2023-02-01T17:54:42.527Z,5.3
2023-02-01T17:58:48.488Z,5.4
2023-02-01T18:00:49.812Z,5.6
2023-02-01T18:02:51.113Z,5.6
2023-02-01T18:04:52.451Z,5.7
2023-02-01T18:06:53.778Z,6
2023-02-01T18:08:55.102Z,6
2023-02-01T18:13:01.104Z,6.1
2023-02-01T18:15:02.432Z,6.1
2023-02-01T18:25:12.458Z,6.3
2023-02-01T18:30:17.483Z,6.3
2023-02-01T18:34:20.158Z,6.2
2023-02-01T18:36:21.508Z,6.2
2023-02-01T18:38:26.145Z,6.1
2023-02-01T18:40:27.483Z,6.2
2023-02-01T18:42:28.845Z,6.1
2023-02-01T18:44:30.163Z,6.1
2023-02-01T18:46:31.574Z,6.1
2023-02-01T18:48:32.875Z,6.1
2023-02-01T18:50:34.214Z,6
2023-02-01T18:52:38.892Z,5.9
2023-02-01T18:58:42.931Z,5.7
2023-02-01T19:04:47.025Z,5.7
2023-02-01T19:06:51.626Z,5.7
2023-02-01T19:08:52.934Z,5.6
2023-02-01T19:10:54.273Z,5.7
2023-02-01T19:12:55.631Z,5.7
2023-02-01T19:14:56.982Z,5.7
2023-02-01T19:16:58.349Z,5.8
2023-02-01T19:18:59.768Z,5.8
2023-02-01T19:21:04.388Z,5.7
2023-02-01T19:23:05.757Z,5.7
2023-02-01T19:25:07.129Z,5.7
2023-02-01T19:27:29.680Z,5.7
2023-02-01T19:29:31.044Z,5.7
2023-02-01T19:35:38.376Z,5.8
2023-02-01T19:37:39.722Z,5.8
2023-02-01T19:39:41.084Z,5.9
2023-02-01T19:41:42.591Z,5.9
2023-02-01T19:43:43.844Z,5.7
2023-02-01T19:45:45.182Z,5.7
2023-02-01T19:47:49.883Z,5.3
2023-02-01T19:49:51.275Z,5.3
2023-02-01T19:51:52.734Z,5.1
2023-02-01T19:53:53.961Z,5
2023-02-01T19:55:55.296Z,5
2023-02-01T20:02:01.831Z,4.8
2023-02-01T20:04:03.143Z,4.7
2023-02-01T20:06:04.456Z,4.7
2023-02-01T20:08:05.810Z,4.7
2023-02-01T20:10:07.166Z,4.7
2023-02-01T20:12:08.476Z,4.6
2023-02-01T20:14:09.852Z,4.7
2023-02-01T20:16:14.629Z,4.7
2023-02-01T20:18:15.882Z,4.7
2023-02-01T20:20:17.205Z,4.7
2023-02-01T20:21:19.505Z,4.7
2023-02-01T20:23:20.843Z,4.7
2023-02-01T20:25:22.586Z,4.7
2023-02-01T20:27:24.351Z,4.7
2023-02-01T20:29:30.566Z,4.7
2023-02-01T20:31:31.947Z,4.8
2023-02-01T20:33:33.181Z,4.8
2023-02-01T20:35:34.478Z,4.8
2023-02-01T20:37:35.839Z,4.8
2023-02-01T20:39:37.179Z,4.9
2023-02-01T20:41:38.466Z,4.9
2023-02-01T20:43:43.119Z,4.9
2023-02-01T20:45:44.505Z,4.9
2023-02-01T20:47:45.883Z,4.9
2023-02-01T20:49:47.217Z,4.9
2023-02-01T20:53:49.945Z,5
2023-02-01T20:55:51.293Z,5.1
2023-02-01T20:57:56.167Z,5.1
2023-02-01T20:59:57.323Z,5.1
2023-02-01T21:03:59.994Z,5.1
2023-02-01T21:06:01.300Z,5.1
2023-02-01T21:08:02.780Z,4.9
2023-02-01T21:10:03.983Z,4.8
2023-02-01T21:12:08.602Z,4.5
2023-02-01T21:14:09.934Z,4.5
2023-02-01T21:16:11.274Z,4.4
2023-02-01T21:17:13.567Z,4.4
2023-02-01T21:23:17.616Z,4.4
2023-02-01T21:25:22.657Z,4.4
2023-02-01T21:27:23.556Z,4.5
2023-02-01T21:31:26.232Z,4.6
2023-02-01T21:33:27.502Z,4.5
2023-02-01T21:37:30.126Z,4.6
2023-02-01T21:41:36.184Z,4.5
2023-02-01T21:47:40.175Z,4.5
2023-02-01T21:49:41.416Z,4.5
2023-02-01T21:51:42.743Z,4.5
2023-02-01T21:53:47.379Z,4.5
2023-02-01T21:55:48.687Z,4.5
2023-02-01T21:57:50.016Z,4.6
2023-02-01T21:59:51.329Z,4.6
2023-02-01T22:01:52.637Z,4.6
2023-02-01T22:03:53.948Z,4.6
2023-02-01T22:05:55.270Z,4.5
2023-02-01T22:07:59.880Z,4.6
2023-02-01T22:10:01.211Z,4.6
2023-02-01T22:13:04.806Z,4.6
2023-02-01T22:15:06.143Z,4.6
2023-02-01T22:17:07.450Z,4.6
2023-02-01T22:19:08.856Z,4.6
2023-02-01T22:21:13.470Z,4.6
2023-02-01T22:23:14.778Z,4.6
2023-02-01T22:25:16.086Z,4.6
2023-02-01T22:27:17.401Z,4.6
2023-02-01T22:29:18.734Z,4.7
2023-02-01T22:31:20.180Z,4.7
2023-02-01T22:33:21.391Z,4.7
2023-02-01T22:35:26.216Z,4.8
2023-02-01T22:37:27.319Z,4.8
2023-02-01T22:39:28.629Z,4.7
2023-02-01T22:41:29.957Z,4.6
2023-02-01T22:43:31.268Z,4.6
2023-02-01T22:45:32.608Z,4.7
2023-02-01T22:47:33.896Z,4.6
2023-02-01T22:49:38.524Z,4.7
2023-02-01T22:51:39.834Z,4.7
2023-02-01T22:53:41.159Z,4.9
2023-02-01T22:55:42.475Z,5
2023-02-01T22:57:43.781Z,5.1
2023-02-01T22:59:45.144Z,5.1
2023-02-01T23:03:51.139Z,5.4
2023-02-01T23:05:52.457Z,5.4
2023-02-01T23:07:53.769Z,5.6
2023-02-01T23:10:20.676Z,5.7
2023-02-01T23:12:22.060Z,5.8
2023-02-01T23:16:28.148Z,5.9
2023-02-01T23:18:29.393Z,6
2023-02-01T23:20:30.771Z,6
2023-02-01T23:22:32.076Z,6.1
2023-02-01T23:24:33.374Z,6.1
2023-02-01T23:26:34.742Z,6
2023-02-01T23:28:36.058Z,6.2
2023-02-01T23:30:40.735Z,6.2
2023-02-01T23:32:42.029Z,6.2
2023-02-01T23:34:43.435Z,6.2
2023-02-01T23:36:44.767Z,6.2
2023-02-01T23:38:46.129Z,6.2
2023-02-01T23:40:47.432Z,6.3
2023-02-01T23:42:48.773Z,6.3
2023-02-01T23:44:53.405Z,6.2
2023-02-01T23:55:00.116Z,6.4
2023-02-01T23:59:06.051Z,6.3
